createdAt,value
2023-09-27T00:00:57.990Z,32.45
2023-09-27T00:01:57.994Z,33.44
2023-09-27T00:02:57.995Z,33.91
2023-09-27T00:03:57.923Z,34.70
2023-09-27T00:04:57.967Z,34.21
2023-09-27T00:05:57.927Z,32.99
2023-09-27T00:06:57.880Z,32.78
2023-09-27T00:07:57.937Z,32.45
2023-09-27T00:08:57.840Z,32.53
2023-09-27T00:09:57.820Z,32.48
2023-09-27T00:10:57.854Z,32.40
2023-09-27T00:11:57.804Z,32.53
2023-09-27T00:12:57.787Z,32.28
2023-09-27T00:13:57.800Z,32.55
2023-09-27T00:14:57.769Z,32.30
2023-09-27T00:15:57.768Z,32.23
2023-09-27T00:16:57.830Z,31.95
2023-09-27T00:17:57.782Z,31.86
2023-09-27T00:18:57.851Z,32.05
2023-09-27T00:19:57.745Z,32.15
2023-09-27T00:20:57.710Z,32.08
2023-09-27T00:21:57.678Z,32.55
2023-09-27T00:22:57.724Z,33.36
2023-09-27T00:23:57.691Z,33.42
2023-09-27T00:24:57.645Z,33.34
2023-09-27T00:25:57.719Z,33.60
2023-09-27T00:26:57.615Z,34.04
2023-09-27T00:27:57.631Z,34.41
2023-09-27T00:28:57.609Z,34.21
2023-09-27T00:29:57.565Z,33.69
2023-09-27T00:30:57.581Z,33.77
2023-09-27T00:31:57.618Z,33.80
2023-09-27T00:32:57.616Z,33.39
2023-09-27T00:33:57.516Z,32.81
2023-09-27T00:34:57.531Z,32.58
2023-09-27T00:35:57.499Z,32.94
2023-09-27T00:36:57.501Z,33.18
2023-09-27T00:37:57.494Z,33.47
2023-09-27T00:38:57.450Z,33.63
2023-09-27T00:39:57.442Z,33.71
2023-09-27T00:40:57.460Z,34.35
2023-09-27T00:41:57.410Z,34.76
2023-09-27T00:42:57.425Z,35.05
2023-09-27T00:43:57.448Z,35.32
2023-09-27T00:44:57.378Z,35.38
2023-09-27T00:45:57.425Z,35.41
2023-09-27T00:46:57.423Z,35.47
2023-09-27T00:47:57.367Z,35.41
2023-09-27T00:48:57.343Z,35.29
2023-09-27T00:49:57.360Z,35.62
2023-09-27T00:50:57.314Z,36.08
2023-09-27T00:51:57.305Z,36.69
2023-09-27T00:52:57.299Z,37.31
2023-09-27T00:53:57.274Z,37.82
2023-09-27T00:54:57.262Z,38.34
2023-09-27T00:55:57.293Z,39.17
2023-09-27T00:56:57.231Z,39.29
2023-09-27T00:57:57.209Z,39.21
2023-09-27T00:58:57.242Z,38.49
2023-09-27T00:59:57.197Z,37.62
2023-09-27T01:00:57.193Z,37.11
2023-09-27T01:01:57.233Z,36.56
2023-09-27T01:02:57.314Z,35.83
2023-09-27T01:03:57.143Z,34.50
2023-09-27T01:04:57.163Z,34.53
2023-09-27T01:05:57.172Z,33.99
2023-09-27T01:06:57.105Z,33.52
2023-09-27T01:07:57.148Z,33.26
2023-09-27T01:08:57.097Z,32.60
2023-09-27T01:09:57.047Z,32.08
2023-09-27T01:10:57.094Z,31.57
2023-09-27T01:11:57.060Z,31.49
2023-09-27T01:12:57.162Z,31.21
2023-09-27T01:13:57.015Z,31.19
2023-09-27T01:14:56.998Z,31.16
2023-09-27T01:15:56.996Z,31.54
2023-09-27T01:16:56.980Z,32.33
2023-09-27T01:17:57.009Z,32.55
2023-09-27T01:18:57.162Z,32.63
2023-09-27T01:19:56.935Z,32.35
2023-09-27T01:20:56.927Z,32.33
2023-09-27T01:21:56.914Z,32.33
2023-09-27T01:22:56.968Z,32.48
2023-09-27T01:23:56.866Z,32.91
2023-09-27T01:24:56.857Z,33.10
2023-09-27T01:25:56.881Z,33.47
2023-09-27T01:26:56.843Z,33.58
2023-09-27T01:27:56.815Z,33.85
2023-09-27T01:28:56.972Z,33.50
2023-09-27T01:29:56.809Z,32.99
2023-09-27T01:30:56.784Z,33.02
2023-09-27T01:31:56.914Z,33.55
2023-09-27T01:32:56.812Z,33.50
2023-09-27T01:33:56.740Z,34.53
2023-09-27T01:34:56.754Z,34.47
2023-09-27T01:35:56.722Z,35.23
2023-09-27T01:36:56.720Z,35.14
2023-09-27T01:37:56.752Z,34.58
2023-09-27T01:38:56.734Z,34.41
2023-09-27T01:39:56.671Z,34.30
2023-09-27T01:40:56.701Z,34.30
2023-09-27T01:41:56.640Z,34.21
2023-09-27T01:42:56.634Z,34.47
2023-09-27T01:43:56.656Z,34.35
2023-09-27T01:44:56.601Z,34.64
2023-09-27T01:45:56.643Z,35.23
2023-09-27T01:46:56.625Z,35.80
2023-09-27T01:47:56.642Z,35.47
2023-09-27T01:48:56.548Z,35.29
2023-09-27T01:49:56.590Z,35.62
2023-09-27T01:50:56.534Z,36.08
2023-09-27T01:51:56.513Z,36.05
2023-09-27T01:52:56.532Z,35.53
2023-09-27T01:53:56.492Z,34.90
2023-09-27T01:54:56.497Z,33.96
2023-09-27T01:55:56.492Z,33.55
2023-09-27T01:56:56.465Z,33.10
2023-09-27T01:57:56.452Z,33.31
2023-09-27T01:58:56.451Z,33.39
2023-09-27T01:59:56.406Z,33.52
2023-09-27T02:00:56.398Z,34.02
2023-09-27T02:01:56.508Z,34.38
2023-09-27T02:02:56.462Z,35.38
2023-09-27T02:03:56.401Z,36.05
2023-09-27T02:04:56.396Z,37.38
2023-09-27T02:05:56.372Z,38.10
2023-09-27T02:06:56.306Z,39.51
2023-09-27T02:07:56.381Z,40.43
2023-09-27T02:08:56.386Z,40.99
2023-09-27T02:09:56.275Z,42.76
2023-09-27T02:10:56.286Z,43.02
2023-09-27T02:11:56.277Z,43.34
2023-09-27T02:12:56.242Z,43.07
2023-09-27T02:13:56.261Z,43.11
2023-09-27T02:14:56.203Z,42.67
2023-09-27T02:15:56.255Z,41.73
2023-09-27T02:16:56.179Z,40.75
2023-09-27T02:17:56.207Z,40.55
2023-09-27T02:18:56.139Z,40.39
2023-09-27T02:19:56.216Z,40.35
2023-09-27T02:20:56.118Z,40.59
2023-09-27T02:21:56.105Z,41.07
2023-09-27T02:22:56.230Z,41.85
2023-09-27T02:23:56.094Z,42.15
2023-09-27T02:24:56.075Z,42.45
2023-09-27T02:25:56.106Z,42.58
2023-09-27T02:26:56.029Z,43.02
2023-09-27T02:27:56.052Z,43.20
2023-09-27T02:28:56.503Z,42.50
2023-09-27T02:29:56.004Z,41.03
2023-09-27T02:30:56.080Z,40.35
2023-09-27T02:31:56.046Z,39.62
2023-09-27T02:32:56.022Z,38.63
2023-09-27T02:33:55.951Z,38.06
2023-09-27T02:34:55.943Z,37.11
2023-09-27T02:35:55.939Z,36.15
2023-09-27T02:36:55.915Z,35.93
2023-09-27T02:37:55.936Z,36.30
2023-09-27T02:38:55.887Z,36.02
2023-09-27T02:39:55.877Z,35.44
2023-09-27T02:40:55.880Z,35.44
2023-09-27T02:41:55.851Z,35.74
2023-09-27T02:42:55.855Z,35.77
2023-09-27T02:43:55.842Z,36.30
2023-09-27T02:44:55.800Z,36.24
2023-09-27T02:45:55.872Z,36.75
2023-09-27T02:46:55.789Z,37.72
2023-09-27T02:47:55.872Z,38.10
2023-09-27T02:48:55.902Z,37.75
2023-09-27T02:49:55.804Z,37.45
2023-09-27T02:50:55.713Z,37.38
2023-09-27T02:51:55.721Z,37.11
2023-09-27T02:52:55.746Z,36.85
2023-09-27T02:53:55.716Z,35.83
2023-09-27T02:54:55.660Z,35.14
2023-09-27T02:55:55.668Z,34.67
2023-09-27T02:56:55.633Z,34.27
2023-09-27T02:57:56.482Z,33.66
2023-09-27T02:58:55.714Z,32.97
2023-09-27T02:59:55.597Z,32.28
2023-09-27T03:00:55.657Z,31.78
2023-09-27T03:01:55.642Z,31.57
2023-09-27T03:02:55.639Z,31.28
2023-09-27T03:03:55.643Z,31.40
2023-09-27T03:04:55.569Z,31.38
2023-09-27T03:05:55.543Z,31.76
2023-09-27T03:06:55.516Z,31.64
2023-09-27T03:07:55.588Z,31.64
2023-09-27T03:08:55.551Z,32.58
2023-09-27T03:09:55.470Z,32.78
2023-09-27T03:10:55.489Z,33.12
2023-09-27T03:11:55.458Z,33.71
2023-09-27T03:12:55.450Z,33.88
2023-09-27T03:13:55.530Z,33.69
2023-09-27T03:14:55.414Z,33.55
2023-09-27T03:15:55.431Z,33.26
2023-09-27T03:16:55.443Z,32.86
2023-09-27T03:17:55.401Z,33.23
2023-09-27T03:18:55.657Z,34.07
2023-09-27T03:19:55.378Z,34.35
2023-09-27T03:20:55.332Z,34.61
2023-09-27T03:21:55.325Z,34.53
2023-09-27T03:22:55.337Z,34.24
2023-09-27T03:23:55.317Z,33.66
2023-09-27T03:24:55.268Z,33.63
2023-09-27T03:25:55.286Z,33.34
2023-09-27T03:26:55.248Z,33.20
2023-09-27T03:27:55.250Z,33.15
2023-09-27T03:28:55.450Z,32.97
2023-09-27T03:29:55.224Z,32.63
2023-09-27T03:30:55.185Z,32.68
2023-09-27T03:31:55.259Z,32.73
2023-09-27T03:32:55.270Z,33.42
2023-09-27T03:33:55.148Z,34.73
2023-09-27T03:34:55.189Z,34.70
2023-09-27T03:35:55.154Z,35.02
2023-09-27T03:36:55.096Z,35.05
2023-09-27T03:37:55.141Z,35.59
2023-09-27T03:38:55.176Z,35.47
2023-09-27T03:39:55.076Z,34.99
2023-09-27T03:40:55.077Z,34.21
2023-09-27T03:41:55.047Z,33.99
2023-09-27T03:42:55.012Z,33.58
2023-09-27T03:43:55.032Z,33.47
2023-09-27T03:44:55.016Z,33.74
2023-09-27T03:45:54.998Z,34.10
2023-09-27T03:46:55.063Z,34.50
2023-09-27T03:47:55.092Z,34.47
2023-09-27T03:48:55.204Z,34.87
2023-09-27T03:49:54.997Z,35.11
2023-09-27T03:50:54.916Z,34.96
2023-09-27T03:51:54.924Z,34.47
2023-09-27T03:52:54.972Z,34.47
2023-09-27T03:53:54.875Z,34.47
2023-09-27T03:54:54.883Z,34.07
2023-09-27T03:55:54.884Z,33.42
2023-09-27T03:56:54.838Z,32.78
2023-09-27T03:57:54.913Z,32.23
2023-09-27T03:58:54.972Z,31.98
2023-09-27T03:59:54.804Z,31.59
2023-09-27T04:00:54.782Z,31.14
2023-09-27T04:01:54.824Z,30.95
2023-09-27T04:02:54.932Z,30.86
2023-09-27T04:03:54.856Z,30.48
2023-09-27T04:04:54.840Z,30.73
2023-09-27T04:05:54.708Z,30.59
2023-09-27T04:06:54.719Z,30.34
2023-09-27T04:07:54.708Z,30.02
2023-09-27T04:08:54.869Z,30.02
2023-09-27T04:09:54.670Z,29.84
2023-09-27T04:10:54.667Z,29.89
2023-09-27T04:11:54.660Z,29.74
2023-09-27T04:12:54.617Z,29.65
2023-09-27T04:13:54.657Z,29.74
2023-09-27T04:14:54.609Z,29.61
2023-09-27T04:15:54.658Z,29.55
2023-09-27T04:16:54.585Z,29.57
2023-09-27T04:17:54.573Z,29.44
2023-09-27T04:18:54.898Z,29.46
2023-09-27T04:19:54.549Z,29.49
2023-09-27T04:20:54.541Z,29.72
2023-09-27T04:21:54.532Z,29.55
2023-09-27T04:22:54.484Z,29.55
2023-09-27T04:23:54.479Z,29.51
2023-09-27T04:24:54.482Z,29.36
2023-09-27T04:25:54.460Z,29.32
2023-09-27T04:26:54.453Z,29.32
2023-09-27T04:27:54.431Z,29.42
2023-09-27T04:28:54.574Z,29.44
2023-09-27T04:29:54.403Z,29.36
2023-09-27T04:30:54.403Z,29.63
2023-09-27T04:31:54.372Z,29.70
2023-09-27T04:32:54.392Z,29.51
2023-09-27T04:33:54.353Z,29.61
2023-09-27T04:35:01.085Z,29.55
2023-09-27T04:35:54.342Z,29.46
2023-09-27T04:36:54.303Z,29.53
2023-09-27T04:37:54.353Z,29.28
2023-09-27T04:38:54.385Z,29.49
2023-09-27T04:39:54.293Z,29.51
2023-09-27T04:40:54.278Z,29.44
2023-09-27T04:41:54.222Z,29.53
2023-09-27T04:42:54.193Z,29.57
2023-09-27T04:43:54.250Z,29.46
2023-09-27T04:44:54.274Z,29.70
2023-09-27T04:45:54.315Z,29.51
2023-09-27T04:46:54.150Z,29.63
2023-09-27T04:47:54.198Z,29.72
2023-09-27T04:48:54.338Z,29.89
2023-09-27T04:49:54.120Z,29.78
2023-09-27T04:50:54.139Z,29.78
2023-09-27T04:51:54.091Z,29.70
2023-09-27T04:52:54.074Z,29.82
2023-09-27T04:53:54.092Z,29.72
2023-09-27T04:54:54.052Z,29.82
2023-09-27T04:55:54.068Z,29.53
2023-09-27T04:56:54.033Z,29.80
2023-09-27T04:57:54.058Z,29.70
2023-09-27T04:58:54.117Z,29.55
2023-09-27T04:59:54.007Z,29.65
2023-09-27T05:00:54.045Z,29.76
2023-09-27T05:01:53.950Z,29.51
2023-09-27T05:02:54.013Z,29.74
2023-09-27T05:03:53.930Z,29.65
2023-09-27T05:04:53.912Z,29.87
2023-09-27T05:05:53.926Z,29.87
2023-09-27T05:06:53.869Z,29.95
2023-09-27T05:07:53.943Z,30.00
2023-09-27T05:08:54.127Z,30.02
2023-09-27T05:09:53.848Z,29.82
2023-09-27T05:10:53.887Z,29.95
2023-09-27T05:11:54.436Z,29.82
2023-09-27T05:12:53.804Z,29.89
2023-09-27T05:13:53.773Z,29.84
2023-09-27T05:14:53.763Z,29.91
2023-09-27T05:15:53.914Z,29.97
2023-09-27T05:16:53.748Z,30.17
2023-09-27T05:17:53.738Z,30.06
2023-09-27T05:18:53.830Z,30.06
2023-09-27T05:19:53.700Z,29.91
2023-09-27T05:20:53.682Z,30.08
2023-09-27T05:21:53.675Z,29.89
2023-09-27T05:22:53.666Z,29.89
2023-09-27T05:23:53.628Z,30.08
2023-09-27T05:24:53.620Z,29.93
2023-09-27T05:25:53.639Z,30.04
2023-09-27T05:26:53.607Z,29.87
2023-09-27T05:27:53.665Z,29.80
2023-09-27T05:28:53.784Z,30.04
2023-09-27T05:29:53.568Z,30.00
2023-09-27T05:30:53.583Z,30.13
2023-09-27T05:31:53.546Z,30.26
2023-09-27T05:32:53.547Z,30.26
2023-09-27T05:33:53.567Z,30.64
2023-09-27T05:34:53.503Z,30.32
2023-09-27T05:35:53.482Z,30.30
2023-09-27T05:36:53.453Z,30.39
2023-09-27T05:37:53.451Z,30.28
2023-09-27T05:38:53.607Z,30.61
2023-09-27T05:39:53.418Z,30.32
2023-09-27T05:40:53.414Z,30.80
2023-09-27T05:41:53.395Z,30.68
2023-09-27T05:42:53.420Z,30.75
2023-09-27T05:43:53.351Z,30.61
2023-09-27T05:44:53.344Z,30.68
2023-09-27T05:45:53.388Z,30.82
2023-09-27T05:46:53.348Z,30.77
2023-09-27T05:47:53.404Z,30.93
2023-09-27T05:48:53.440Z,30.77
2023-09-27T05:49:53.281Z,31.00
2023-09-27T05:50:53.269Z,31.00
2023-09-27T05:51:53.254Z,30.59
2023-09-27T05:52:53.280Z,30.52
2023-09-27T05:53:53.312Z,30.70
2023-09-27T05:54:53.197Z,30.46
2023-09-27T05:55:53.221Z,30.13
2023-09-27T05:56:53.185Z,30.21
2023-09-27T05:57:53.242Z,29.95
2023-09-27T05:58:53.349Z,29.95
2023-09-27T05:59:53.163Z,29.76
2023-09-27T06:00:53.126Z,29.76
2023-09-27T06:01:53.758Z,29.78
2023-09-27T06:02:53.554Z,29.44
2023-09-27T06:03:53.152Z,29.61
2023-09-27T06:04:53.066Z,29.55
2023-09-27T06:05:53.074Z,29.55
2023-09-27T06:06:53.057Z,29.74
2023-09-27T06:07:53.041Z,29.72
2023-09-27T06:08:53.285Z,29.70
2023-09-27T06:09:53.004Z,29.84
2023-09-27T06:10:53.000Z,29.97
2023-09-27T06:11:52.989Z,30.10
2023-09-27T06:12:52.959Z,30.13
2023-09-27T06:13:52.940Z,30.10
2023-09-27T06:14:52.932Z,30.32
2023-09-27T06:15:52.985Z,30.41
2023-09-27T06:16:52.969Z,30.37
2023-09-27T06:17:53.031Z,30.21
2023-09-27T06:18:53.104Z,30.28
2023-09-27T06:19:52.865Z,30.13
2023-09-27T06:20:52.887Z,30.00
2023-09-27T06:21:52.836Z,29.89
2023-09-27T06:22:52.820Z,29.65
2023-09-27T06:23:52.819Z,29.40
2023-09-27T06:24:52.904Z,29.30
2023-09-27T06:25:52.821Z,29.40
2023-09-27T06:26:52.765Z,29.32
2023-09-27T06:27:52.796Z,29.19
2023-09-27T06:28:53.037Z,29.34
2023-09-27T06:29:52.720Z,29.51
2023-09-27T06:30:52.787Z,29.40
2023-09-27T06:31:52.802Z,29.36
2023-09-27T06:32:52.833Z,29.55
2023-09-27T06:33:52.667Z,30.08
2023-09-27T06:34:52.687Z,30.21
2023-09-27T06:35:52.736Z,30.70
2023-09-27T06:36:52.654Z,30.98
2023-09-27T06:37:52.727Z,31.26
2023-09-27T06:38:52.903Z,30.80
2023-09-27T06:39:52.629Z,30.91
2023-09-27T06:40:52.612Z,30.46
2023-09-27T06:41:52.590Z,30.26
2023-09-27T06:42:52.966Z,30.00
2023-09-27T06:43:52.581Z,30.13
2023-09-27T06:44:52.529Z,29.95
2023-09-27T06:45:52.576Z,29.74
2023-09-27T06:46:52.572Z,29.63
2023-09-27T06:47:52.602Z,29.61
2023-09-27T06:48:52.643Z,30.39
2023-09-27T06:49:52.460Z,30.57
2023-09-27T06:50:52.461Z,30.21
2023-09-27T06:51:52.436Z,30.30
2023-09-27T06:52:59.907Z,30.68
2023-09-27T06:53:52.435Z,31.12
2023-09-27T06:54:52.393Z,31.98
2023-09-27T06:55:52.374Z,32.71
2023-09-27T06:56:52.380Z,32.18
2023-09-27T06:57:52.388Z,32.45
2023-09-27T06:58:52.535Z,32.20
2023-09-27T06:59:52.304Z,31.47
2023-09-27T07:00:52.346Z,31.14
2023-09-27T07:01:52.289Z,31.02
2023-09-27T07:02:52.368Z,31.40
2023-09-27T07:03:52.406Z,32.50
2023-09-27T07:04:52.238Z,33.26
2023-09-27T07:05:52.249Z,34.35
2023-09-27T07:06:52.248Z,35.38
2023-09-27T07:07:52.197Z,36.27
2023-09-27T07:08:52.303Z,36.08
2023-09-27T07:09:52.168Z,35.96
2023-09-27T07:10:52.202Z,35.05
2023-09-27T07:11:52.151Z,34.87
2023-09-27T07:12:52.202Z,34.41
2023-09-27T07:13:52.126Z,33.99
2023-09-27T07:14:52.107Z,33.52
2023-09-27T07:15:52.109Z,32.91
2023-09-27T07:17:00.773Z,32.10
2023-09-27T07:17:52.186Z,31.45
2023-09-27T07:18:52.356Z,31.28
2023-09-27T07:19:52.660Z,31.54
2023-09-27T07:20:52.141Z,31.64
2023-09-27T07:21:52.028Z,31.09
2023-09-27T07:22:52.024Z,31.71
2023-09-27T07:23:52.001Z,32.28
2023-09-27T07:24:51.974Z,32.30
2023-09-27T07:25:51.984Z,32.25
2023-09-27T07:26:52.003Z,32.33
2023-09-27T07:27:51.941Z,32.91
2023-09-27T07:28:52.328Z,33.60
2023-09-27T07:29:51.900Z,33.93
2023-09-27T07:30:51.957Z,33.85
2023-09-27T07:31:51.943Z,34.41
2023-09-27T07:32:51.943Z,34.47
2023-09-27T07:33:51.859Z,34.73
2023-09-27T07:34:51.834Z,34.64
2023-09-27T07:35:51.824Z,34.16
2023-09-27T07:36:51.811Z,34.30
2023-09-27T07:37:51.809Z,34.44
2023-09-27T07:38:52.103Z,33.88
2023-09-27T07:39:51.789Z,34.41
2023-09-27T07:40:51.776Z,34.76
2023-09-27T07:41:51.742Z,34.24
2023-09-27T07:42:51.725Z,33.99
2023-09-27T07:43:52.031Z,33.69
2023-09-27T07:44:51.719Z,33.50
2023-09-27T07:45:51.686Z,33.18
2023-09-27T07:46:51.687Z,32.78
2023-09-27T07:47:51.950Z,32.05
2023-09-27T07:48:51.963Z,32.33
2023-09-27T07:49:51.684Z,32.86
2023-09-27T07:50:54.100Z,32.60
2023-09-27T07:51:51.610Z,33.02
2023-09-27T07:52:51.601Z,33.42
2023-09-27T07:53:51.607Z,33.07
2023-09-27T07:54:51.568Z,32.66
2023-09-27T07:55:51.563Z,33.12
2023-09-27T07:56:52.240Z,33.31
2023-09-27T07:57:51.538Z,33.26
2023-09-27T07:58:51.763Z,33.52
2023-09-27T07:59:51.489Z,34.79
2023-09-27T08:00:51.704Z,34.76
2023-09-27T08:01:51.498Z,33.74
2023-09-27T08:02:52.076Z,33.60
2023-09-27T08:03:51.500Z,35.05
2023-09-27T08:04:51.426Z,35.08
2023-09-27T08:05:51.430Z,35.14
2023-09-27T08:06:51.446Z,34.41
2023-09-27T08:07:51.389Z,33.82
2023-09-27T08:08:51.566Z,33.10
2023-09-27T08:09:51.372Z,36.21
2023-09-27T08:10:51.458Z,39.14
2023-09-27T08:11:51.333Z,39.51
2023-09-27T08:12:51.334Z,40.59
2023-09-27T08:13:51.313Z,41.73
2023-09-27T08:14:51.315Z,41.48
2023-09-27T08:15:51.300Z,42.50
2023-09-27T08:16:51.414Z,41.81
2023-09-27T08:17:51.315Z,41.27
2023-09-27T08:18:51.567Z,42.32
2023-09-27T08:19:51.245Z,41.56
2023-09-27T08:20:51.370Z,40.12
2023-09-27T08:21:51.291Z,40.00
2023-09-27T08:22:51.199Z,41.56
2023-09-27T08:23:51.179Z,44.03
2023-09-27T08:24:51.176Z,44.74
2023-09-27T08:25:51.158Z,43.79
2023-09-27T08:26:51.163Z,44.40
2023-09-27T08:27:51.123Z,43.02
2023-09-27T08:28:51.233Z,41.94
2023-09-27T08:29:51.104Z,40.87
2023-09-27T08:30:51.160Z,39.55
2023-09-27T08:31:51.089Z,41.60
2023-09-27T08:32:51.147Z,44.21
2023-09-27T08:33:51.046Z,46.43
2023-09-27T08:34:51.040Z,48.35
2023-09-27T08:35:51.069Z,47.22
2023-09-27T08:36:51.021Z,46.80
2023-09-27T08:37:51.003Z,47.17
2023-09-27T08:38:51.164Z,47.01
2023-09-27T08:39:50.988Z,48.18
2023-09-27T08:40:50.968Z,47.79
2023-09-27T08:41:50.959Z,48.12
2023-09-27T08:42:50.931Z,48.21
2023-09-27T08:43:50.930Z,50.12
2023-09-27T08:44:50.915Z,52.80
2023-09-27T08:45:50.936Z,55.62
2023-09-27T08:46:50.885Z,57.35
2023-09-27T08:47:50.957Z,59.83
2023-09-27T08:48:50.965Z,61.69
2023-09-27T08:49:50.849Z,62.72
2023-09-27T08:50:50.876Z,64.02
2023-09-27T08:51:50.812Z,64.32
2023-09-27T08:52:50.832Z,64.42
2023-09-27T08:53:50.843Z,61.92
2023-09-27T08:54:50.786Z,57.63
2023-09-27T08:55:54.265Z,55.00
2023-09-27T08:56:50.778Z,54.07
2023-09-27T08:57:50.788Z,53.44
2023-09-27T08:58:50.979Z,53.17
2023-09-27T08:59:50.828Z,50.92
2023-09-27T09:00:50.712Z,49.15
2023-09-27T09:01:50.735Z,47.25
2023-09-27T09:02:50.875Z,45.87
2023-09-27T09:03:50.727Z,46.75
2023-09-27T09:04:50.644Z,49.17
2023-09-27T09:05:50.713Z,50.77
2023-09-27T09:06:50.629Z,52.33
2023-09-27T09:07:50.615Z,52.30
2023-09-27T09:08:50.623Z,55.55
2023-09-27T09:09:50.597Z,57.23
2023-09-27T09:10:50.636Z,57.04
2023-09-27T09:11:50.555Z,57.75
2023-09-27T09:12:50.553Z,55.70
2023-09-27T09:13:50.526Z,51.84
2023-09-27T09:14:50.521Z,50.83
2023-09-27T09:15:50.557Z,49.76
2023-09-27T09:16:50.508Z,51.05
2023-09-27T09:17:50.489Z,49.23
2023-09-27T09:18:50.622Z,47.79
2023-09-27T09:19:50.466Z,45.82
2023-09-27T09:20:50.615Z,43.89
2023-09-27T09:21:50.418Z,45.52
2023-09-27T09:22:50.412Z,46.23
2023-09-27T09:23:50.651Z,48.43
2023-09-27T09:24:50.410Z,48.35
2023-09-27T09:25:50.430Z,48.07
2023-09-27T09:26:50.442Z,49.47
2023-09-27T09:27:50.346Z,51.33
2023-09-27T09:28:52.824Z,53.07
2023-09-27T09:29:50.322Z,53.69
2023-09-27T09:30:50.326Z,54.89
2023-09-27T09:31:50.307Z,55.26
2023-09-27T09:32:50.490Z,55.78
2023-09-27T09:33:50.342Z,57.79
2023-09-27T09:34:50.249Z,62.62
2023-09-27T09:35:50.264Z,63.58
2023-09-27T09:36:52.934Z,63.58
2023-09-27T09:37:51.634Z,64.42
2023-09-27T09:38:50.236Z,63.68
2023-09-27T09:39:50.263Z,58.56
2023-09-27T09:40:50.187Z,54.78
2023-09-27T09:41:50.262Z,56.96
2023-09-27T09:42:50.147Z,61.47
2023-09-27T09:43:50.166Z,63.34
2023-09-27T09:44:50.116Z,64.02
2023-09-27T09:45:50.125Z,63.53
2023-09-27T09:46:50.203Z,64.72
2023-09-27T09:47:50.234Z,64.07
2023-09-27T09:48:50.081Z,63.73
2023-09-27T09:49:51.913Z,63.88
2023-09-27T09:50:50.109Z,64.72
2023-09-27T09:51:50.047Z,65.69
2023-09-27T09:52:50.018Z,69.48
2023-09-27T09:53:50.075Z,69.02
2023-09-27T09:56:28.426Z,64.47
2023-09-27T09:57:10.002Z,61.42
2023-09-27T09:58:02.070Z,57.59
2023-09-27T09:59:01.968Z,56.84
2023-09-27T10:00:01.944Z,56.11
2023-09-27T10:01:01.937Z,62.11
2023-09-27T10:02:01.920Z,69.02
2023-09-27T10:03:01.973Z,74.13
2023-09-27T10:04:02.038Z,79.59
2023-09-27T10:05:01.921Z,84.10
2023-09-27T10:06:01.884Z,90.12
2023-09-27T10:07:01.872Z,89.64
2023-09-27T10:08:01.873Z,90.91
2023-09-27T10:09:01.833Z,86.29
2023-09-27T10:10:01.833Z,84.88
2023-09-27T10:11:01.844Z,82.11
2023-09-27T10:12:01.853Z,76.24
2023-09-27T10:13:01.785Z,72.01
2023-09-27T10:14:01.782Z,64.92
2023-09-27T10:15:01.760Z,58.56
2023-09-27T10:16:01.755Z,55.55
2023-09-27T10:17:01.748Z,52.47
2023-09-27T10:18:01.767Z,53.31
2023-09-27T10:19:01.730Z,53.10
2023-09-27T10:20:01.683Z,54.78
2023-09-27T10:21:01.704Z,56.04
2023-09-27T10:22:01.671Z,56.76
2023-09-27T10:23:01.631Z,59.44
2023-09-27T10:24:01.623Z,60.26
2023-09-27T10:25:01.628Z,59.02
2023-09-27T10:26:01.599Z,57.87
2023-09-27T10:27:01.588Z,56.26
2023-09-27T10:28:01.566Z,54.53
2023-09-27T10:29:01.568Z,55.59
2023-09-27T10:30:01.559Z,54.57
2023-09-27T10:31:01.542Z,52.40
2023-09-27T10:32:01.521Z,56.15
2023-09-27T10:33:01.567Z,58.52
2023-09-27T10:34:01.499Z,56.38
2023-09-27T10:35:04.145Z,56.96
2023-09-27T10:36:01.697Z,61.24
2023-09-27T10:37:10.573Z,64.97
2023-09-27T10:38:01.546Z,68.39
2023-09-27T10:39:01.470Z,70.30
2023-09-27T10:40:01.476Z,75.75
2023-09-27T10:41:01.651Z,78.32
2023-09-27T10:42:01.492Z,79.59
2023-09-27T10:43:01.445Z,79.44
2023-09-27T10:44:01.431Z,79.14
2023-09-27T10:45:01.400Z,78.61
2023-09-27T10:46:01.371Z,80.99
2023-09-27T10:47:01.399Z,85.84
2023-09-27T10:48:01.386Z,85.22
2023-09-27T10:49:01.333Z,89.73
2023-09-27T10:50:01.318Z,93.99
2023-09-27T10:51:01.401Z,90.81
2023-09-27T10:52:06.995Z,88.96
2023-09-27T10:53:01.321Z,86.56
2023-09-27T10:54:01.275Z,86.11
2023-09-27T10:55:01.254Z,89.25
2023-09-27T10:56:01.238Z,91.61
2023-09-27T10:57:01.239Z,90.81
2023-09-27T10:58:01.313Z,87.47
2023-09-27T10:59:01.546Z,86.65
2023-09-27T11:00:01.231Z,84.62
2023-09-27T11:01:01.300Z,86.56
2023-09-27T11:02:01.267Z,90.91
2023-09-27T11:03:01.279Z,93.57
2023-09-27T11:04:01.255Z,92.84
2023-09-27T11:05:01.180Z,92.94
2023-09-27T11:06:01.198Z,92.22
2023-09-27T11:07:01.288Z,91.92
2023-09-27T11:08:01.153Z,88.30
2023-09-27T11:09:01.098Z,90.02
2023-09-27T11:10:01.083Z,95.22
2023-09-27T11:11:01.123Z,98.31
2023-09-27T11:12:01.334Z,97.17
2023-09-27T11:13:01.098Z,90.51
2023-09-27T11:14:01.056Z,82.60
2023-09-27T11:15:01.053Z,84.02
2023-09-27T11:16:01.042Z,86.47
2023-09-27T11:17:01.092Z,93.78
2023-09-27T11:18:01.084Z,96.60
2023-09-27T11:19:01.129Z,95.40
2023-09-27T11:20:01.092Z,99.02
2023-09-27T11:21:01.047Z,102.81
2023-09-27T11:22:01.633Z,109.23
2023-09-27T11:23:00.960Z,114.65
2023-09-27T11:24:01.004Z,122.88
2023-09-27T11:25:01.046Z,134.40
2023-09-27T11:26:00.926Z,137.74
2023-09-27T11:27:00.929Z,134.62
2023-09-27T11:28:00.926Z,131.94
2023-09-27T11:29:00.896Z,123.51
2023-09-27T11:30:00.896Z,124.07
2023-09-27T11:31:00.815Z,127.30
2023-09-27T11:32:01.000Z,128.68
2023-09-27T11:33:00.904Z,128.18
2023-09-27T11:34:00.877Z,124.07
2023-09-27T11:35:00.752Z,119.95
2023-09-27T11:36:02.194Z,124.16
2023-09-27T11:37:00.753Z,127.30
2023-09-27T11:38:00.723Z,126.81
2023-09-27T11:39:00.740Z,130.49
2023-09-27T11:40:00.699Z,132.79
2023-09-27T11:41:00.755Z,136.83
2023-09-27T11:42:00.707Z,134.18
2023-09-27T11:43:00.634Z,130.09
2023-09-27T11:44:00.633Z,133.53
2023-09-27T11:45:00.649Z,137.74
2023-09-27T11:46:00.642Z,140.53
2023-09-27T11:47:00.582Z,140.53
2023-09-27T11:48:00.656Z,145.20
2023-09-27T11:49:00.591Z,144.19
2023-09-27T11:50:00.547Z,147.38
2023-09-27T11:51:00.625Z,149.64
2023-09-27T11:52:01.500Z,148.44
2023-09-27T11:53:00.526Z,147.12
2023-09-27T11:54:00.507Z,147.25
2023-09-27T11:55:00.540Z,147.51
2023-09-27T11:56:00.577Z,144.94
2023-09-27T11:57:00.562Z,147.51
2023-09-27T11:58:00.589Z,147.91
2023-09-27T11:59:00.488Z,153.51
2023-09-27T12:00:00.610Z,157.43
2023-09-27T12:01:00.557Z,162.67
2023-09-27T12:02:06.454Z,162.20
2023-09-27T12:03:00.571Z,152.38
2023-09-27T12:04:01.065Z,151.00
2023-09-27T12:05:00.602Z,150.73
2023-09-27T12:06:00.475Z,148.84
2023-09-27T12:07:00.637Z,145.71
2023-09-27T12:08:00.289Z,144.19
2023-09-27T12:09:02.157Z,137.06
2023-09-27T12:10:00.301Z,138.31
2023-09-27T12:11:00.272Z,146.99
2023-09-27T12:12:00.253Z,153.51
2023-09-27T12:13:00.298Z,158.48
2023-09-27T12:14:00.244Z,155.37
2023-09-27T12:15:00.279Z,154.65
2023-09-27T12:16:00.591Z,158.79
2023-09-27T12:17:00.176Z,155.37
2023-09-27T12:18:00.268Z,141.85
2023-09-27T12:19:00.199Z,147.65
2023-09-27T12:20:00.194Z,151.55
2023-09-27T12:21:00.220Z,141.49
2023-09-27T12:22:00.133Z,148.84
2023-09-27T12:23:00.140Z,150.04
2023-09-27T12:24:00.120Z,147.25
2023-09-27T12:25:00.094Z,143.94
2023-09-27T12:26:00.152Z,148.30
2023-09-27T12:27:00.177Z,149.37
2023-09-27T12:28:00.154Z,148.84
2023-09-27T12:29:00.115Z,150.32
2023-09-27T12:30:00.036Z,147.91
2023-09-27T12:31:00.079Z,145.58
2023-09-27T12:32:00.042Z,156.10
2023-09-27T12:33:00.237Z,157.88
2023-09-27T12:34:00.023Z,154.79
2023-09-27T12:34:59.973Z,146.35
2023-09-27T12:35:59.979Z,143.32
2023-09-27T12:37:00.065Z,141.61
2023-09-27T12:38:00.007Z,139.82
2023-09-27T12:38:59.934Z,134.40
2023-09-27T12:40:00.020Z,136.38
2023-09-27T12:40:59.924Z,140.53
2023-09-27T12:41:59.893Z,146.09
2023-09-27T12:42:59.978Z,152.52
2023-09-27T12:43:59.882Z,145.96
2023-09-27T12:44:59.967Z,143.32
2023-09-27T12:45:59.875Z,140.53
2023-09-27T12:46:59.927Z,138.89
2023-09-27T12:48:00.053Z,142.58
2023-09-27T12:48:59.770Z,142.83
2023-09-27T12:50:01.419Z,136.38
2023-09-27T12:50:59.801Z,132.47